PST,Max TemperatureF,Mean TemperatureF,Min TemperatureF,Max Dew PointF,MeanDew PointF,Min DewpointF,Max Humidity, Mean Humidity, Min Humidity, Max Sea Level PressureIn, Mean Sea Level PressureIn, Min Sea Level PressureIn, Max VisibilityMiles, Mean VisibilityMiles, Min VisibilityMiles, Max Wind SpeedMPH, Mean Wind SpeedMPH, Max Gust SpeedMPH,PrecipitationIn, CloudCover, Events, WindDirDegrees
2012-12-1,57,47,37,39,35,30,76,58,40,29.83,29.75,29.54,,,,28,17,38,0.00,,,172
2012-12-2,57,45,32,44,33,23,89,65,41,30.09,29.66,29.31,,,,38,19,51,0.16,,,191
2012-12-3,48,38,28,30,26,21,92,63,34,30.19,30.14,30.04,,,,17,8,21,0.00,,,168
2012-12-4,53,46,38,40,37,31,85,70,54,30.07,30.04,29.98,,,,26,15,35,0.06,,,172
2012-12-5,57,43,29,42,35,27,92,65,38,30.11,30.04,29.98,,,,28,12,36,0.01,,,200
2012-12-6,49,35,21,32,28,22,92,71,50,30.17,30.12,30.05,,,,15,5,20,0.00,,,74
2012-12-7,44,31,17,27,22,17,96,71,45,30.22,30.12,30.03,,,,12,3,16,0.00,,,158
2012-12-8,38,30,21,23,19,14,69,57,44,30.22,30.14,30.06,,,,17,7,21,0.00,,,259
2012-12-9,40,34,27,29,24,18,85,72,59,30.44,30.35,30.23,,,,16,5,18,0.00,,,310
2012-12-10,52,42,31,33,27,22,82,57,32,30.31,30.24,30.14,,,,16,8,18,0.00,,,200
2012-12-11,55,44,32,33,23,16,85,56,26,30.11,29.79,29.54,,,,30,16,36,0.01,,,173
2012-12-12,39,34,28,34,29,26,100,82,64,29.86,29.75,29.60,,,,18,6,25,0.02,,,74
2012-12-13,34,30,26,29,26,23,92,81,69,29.95,29.88,29.82,,,,13,5,15,0.06,,,38
2012-12-14,36,28,19,26,23,17,92,78,64,29.94,29.82,29.76,,,,13,4,14,0.00,,,209
2012-12-15,36,28,19,28,21,15,100,72,44,29.95,29.87,29.78,,,,20,9,25,0.07,,,182
2012-12-16,44,38,32,32,29,25,96,80,64,29.88,29.76,29.51,,,,30,16,39,0.06,,,192
2012-12-17,46,33,20,35,24,13,79,62,45,29.95,29.73,29.48,,,,38,19,51,0.00,,,231
2012-12-18,31,22,12,17,12,9,88,66,43,30.11,30.00,29.95,,,,12,4,14,0.00,,,205
2012-12-19,32,22,11,12,10,5,84,64,43,30.26,30.20,30.12,,,,25,15,32,0.00,,,148
2012-12-20,45,37,29,13,10,7,46,34,22,30.11,29.97,29.87,,,,33,20,44,0.00,,,143
2012-12-21,43,37,31,18,13,10,44,37,30,29.91,29.87,29.82,,,,20,9,29,0.00,,,129
2012-12-22,44,35,25,30,22,15,82,61,40,29.93,29.78,29.68,,,,35,16,47,0.01,,,167
2012-12-23,39,32,24,30,26,19,82,71,59,29.99,29.83,29.68,,,,31,15,39,0.01,,,159
2012-12-24,36,26,16,24,16,11,78,63,47,30.27,30.10,29.84,,,,17,9,22,0.00,,,218
2012-12-25,29,19,8,26,18,5,92,80,67,30.22,30.02,29.80,,,,15,4,18,0.12,,,325
2012-12-26,31,26,21,27,25,20,100,93,85,29.94,29.81,29.73,,,,9,2,13,0.17,,,96
2012-12-27,33,22,11,23,18,9,92,82,72,30.26,30.12,29.95,,,,14,5,17,0.00,,,164
2012-12-28,24,14,4,16,9,2,92,80,68,30.32,30.27,30.22,,,,14,5,17,0.00,,,111
2012-12-29,20,13,5,14,11,3,92,83,73,30.27,30.19,30.11,,,,7,2,8,0.09,,,58
2012-12-30,21,13,4,16,12,4,92,85,77,30.37,30.28,30.14,,,,8,2,9,0.01,,,127
2012-12-31,18,5,-8,9,2,-8,91,82,73,30.51,30.42,30.36,,,,20,8,24,0.00,,,155